Archival Weather

Chicago O'Hare International

Chicago, Illinois (KORD)

Report from: Monday, December 26, 2022 10:51 AM CST
Current time: Friday, June 21, 2024 3:32 AM CDT

Current weather – Weather history – Daily summaries
Weather forecast

Present weatherLight snow
Temperature-6.7°C (19.9°F)
Dew point-11.7°C (10.9°F)
Winds Calm
Visibility10 mi. (16.1 km)
Clouds Scattered clouds 2,500 ft. (762 m)
Ceiling: Overcast 5,000 ft. (1,524 m)
Altimeter30.15 in.Hg (1021 mB)
PrecipitiationTrace
Relative humidity67 %
Density altitude-2,956 ft. (-901 m)
Sea-level pressure102.2 kPa (1022 mB, 30.19 in.Hg)
Remarks System requires maintenance
Automated weather observing station with precipitation discriminator
Flight conditions Visual Meteorological Conditions
Raw dataKORD 261651Z 00000KT 10SM -SN SCT025 OVC050 M07/M12 A3015 RMK AO2 SLP222 P0000 T10671117 $
An error has occurred. This application may no longer respond until reloaded. Reload 🗙